createdAt,value
2018-05-15T00:00:53.789Z,23.97
2018-05-15T00:03:21.228Z,19.07
2018-05-15T00:05:48.671Z,19.73
2018-05-15T00:08:16.116Z,18.40
2018-05-15T00:10:44.326Z,18.43
2018-05-15T00:13:11.780Z,26.67
2018-05-15T00:15:39.238Z,24.57
2018-05-15T00:18:06.689Z,22.77
2018-05-15T00:20:34.126Z,30.27
2018-05-15T00:23:01.577Z,21.47
2018-05-15T00:25:29.809Z,17.50
2018-05-15T00:27:57.264Z,17.13
2018-05-15T00:30:24.745Z,12.43
2018-05-15T00:32:52.965Z,21.97
2018-05-15T00:35:20.419Z,13.27
2018-05-15T00:37:47.940Z,16.57
2018-05-15T00:40:16.154Z,14.13
2018-05-15T00:42:43.596Z,17.53
2018-05-15T00:45:11.051Z,17.97
2018-05-15T00:47:38.490Z,20.27
2018-05-15T00:50:06.704Z,21.57
2018-05-15T00:52:34.152Z,18.97
2018-05-15T00:55:16.238Z,18.40
2018-05-15T00:57:44.538Z,25.13
2018-05-15T01:00:11.988Z,32.50
2018-05-15T01:02:39.438Z,25.73
2018-05-15T01:05:06.892Z,22.80
2018-05-15T01:07:34.336Z,18.57
2018-05-15T01:10:01.787Z,33.33
2018-05-15T01:12:29.229Z,23.20
2018-05-15T01:14:57.439Z,20.33
2018-05-15T01:17:24.893Z,16.83
2018-05-15T01:19:52.364Z,15.97
2018-05-15T01:22:19.811Z,15.90
2018-05-15T01:24:47.256Z,13.37
2018-05-15T01:27:14.687Z,35.63
2018-05-15T01:29:42.956Z,21.57
2018-05-15T01:32:11.168Z,20.57
2018-05-15T01:34:38.617Z,14.47
2018-05-15T01:37:06.061Z,19.00
2018-05-15T01:39:33.515Z,13.00
2018-05-15T01:42:00.960Z,13.60
2018-05-15T01:44:29.176Z,16.20
2018-05-15T01:46:56.643Z,17.73
2018-05-15T01:49:24.099Z,18.77
2018-05-15T01:51:51.541Z,22.17
2018-05-15T01:54:18.988Z,17.70
2018-05-15T01:56:46.428Z,23.10
2018-05-15T01:59:13.883Z,18.90
2018-05-15T02:01:41.316Z,21.40
2018-05-15T02:04:09.556Z,16.43
2018-05-15T02:06:36.993Z,22.93
2018-05-15T02:09:05.397Z,17.70
2018-05-15T02:11:32.841Z,18.40
2018-05-15T02:14:00.293Z,21.63
2018-05-15T02:16:27.750Z,16.67
2018-05-15T02:18:55.197Z,27.07
2018-05-15T02:21:22.655Z,15.83
2018-05-15T02:23:50.100Z,19.80
2018-05-15T02:26:17.550Z,26.30
2018-05-15T02:28:45.016Z,17.70
2018-05-15T02:31:12.457Z,22.87
2018-05-15T02:33:39.897Z,20.30
2018-05-15T02:36:08.120Z,22.63
2018-05-15T02:38:35.556Z,22.03
2018-05-15T02:41:03.018Z,19.00
2018-05-15T02:43:30.452Z,23.97
2018-05-15T02:45:57.906Z,23.00
2018-05-15T02:48:25.348Z,18.33
2018-05-15T02:50:53.568Z,22.23
2018-05-15T02:53:21.779Z,31.83
2018-05-15T02:55:49.251Z,18.23
2018-05-15T02:58:16.679Z,25.47
2018-05-15T03:00:44.125Z,15.07
2018-05-15T03:03:11.569Z,20.43
2018-05-15T03:05:39.021Z,23.00
2018-05-15T03:08:06.483Z,30.23
2018-05-15T03:10:33.941Z,20.27
2018-05-15T03:13:01.393Z,16.00
2018-05-15T03:15:28.884Z,19.17
2018-05-15T03:17:56.332Z,20.70
2018-05-15T03:20:23.775Z,19.60
2018-05-15T03:22:51.214Z,24.07
2018-05-15T03:25:18.669Z,26.03
2018-05-15T03:27:46.117Z,33.17
2018-05-15T03:30:13.568Z,19.00
2018-05-15T03:32:41.005Z,16.30
2018-05-15T03:35:08.466Z,13.43
2018-05-15T03:37:35.917Z,14.00
2018-05-15T03:40:04.135Z,12.23
2018-05-15T03:42:31.578Z,11.07
2018-05-15T03:44:59.045Z,21.60
2018-05-15T03:47:26.472Z,14.80
2018-05-15T03:49:53.928Z,26.83
2018-05-15T03:52:21.369Z,16.40
2018-05-15T03:54:48.843Z,15.63
2018-05-15T03:57:16.289Z,15.13
2018-05-15T03:59:43.734Z,12.53
2018-05-15T04:02:23.900Z,18.70
2018-05-15T04:05:04.030Z,15.97
2018-05-15T04:07:44.046Z,15.97
2018-05-15T04:10:11.505Z,16.57
2018-05-15T04:12:38.952Z,14.50
2018-05-15T04:15:07.161Z,13.73
2018-05-15T04:17:34.611Z,22.00
2018-05-15T04:20:02.051Z,26.23
2018-05-15T04:22:29.501Z,21.47
2018-05-15T04:24:56.950Z,13.03
2018-05-15T04:27:24.402Z,10.83
2018-05-15T04:29:51.847Z,9.70
2018-05-15T04:32:19.301Z,15.83
2018-05-15T04:34:46.756Z,25.93
2018-05-15T04:37:14.213Z,28.80
2018-05-15T04:39:41.668Z,24.13
2018-05-15T04:42:09.103Z,21.60
2018-05-15T04:44:37.323Z,16.53
2018-05-15T04:47:04.787Z,17.60
2018-05-15T04:49:32.252Z,21.23
2018-05-15T04:51:59.719Z,16.97
2018-05-15T04:54:27.162Z,23.17
2018-05-15T04:56:54.605Z,19.50
2018-05-15T04:59:22.065Z,15.43
2018-05-15T05:01:49.526Z,22.33
2018-05-15T05:04:16.970Z,24.80
2018-05-15T05:06:44.433Z,25.83
2018-05-15T05:09:11.872Z,21.07
2018-05-15T05:11:39.414Z,20.10
2018-05-15T05:14:06.813Z,20.67
2018-05-15T05:16:34.269Z,22.80
2018-05-15T05:19:01.709Z,17.10
2018-05-15T05:21:29.165Z,11.93
2018-05-15T05:23:56.602Z,14.13
2018-05-15T05:26:24.054Z,23.33
2018-05-15T05:28:51.492Z,19.13
2018-05-15T05:31:18.944Z,26.20
2018-05-15T05:33:47.145Z,19.73
2018-05-15T05:36:14.604Z,22.30
2018-05-15T05:38:42.051Z,15.40
2018-05-15T05:41:09.509Z,25.67
2018-05-15T05:43:36.997Z,31.67
2018-05-15T05:46:04.441Z,29.23
2018-05-15T05:48:31.906Z,20.17
2018-05-15T05:50:59.348Z,24.63
2018-05-15T05:53:27.633Z,20.23
2018-05-15T05:55:55.077Z,18.40
2018-05-15T05:58:22.534Z,25.30
2018-05-15T06:00:49.976Z,18.90
2018-05-15T06:03:17.515Z,30.27
2018-05-15T06:05:44.998Z,26.20
2018-05-15T06:08:12.451Z,21.97
2018-05-15T06:10:39.885Z,19.63
2018-05-15T06:13:07.334Z,27.13
2018-05-15T06:15:35.555Z,22.60
2018-05-15T06:18:03.009Z,24.83
2018-05-15T06:20:30.448Z,25.73
2018-05-15T06:22:57.900Z,30.80
2018-05-15T06:25:25.337Z,18.60
2018-05-15T06:27:52.789Z,19.57
2018-05-15T06:30:20.999Z,22.60
2018-05-15T06:32:48.464Z,28.90
2018-05-15T06:35:15.905Z,38.53
2018-05-15T06:37:43.415Z,30.83
2018-05-15T06:40:10.877Z,23.67
2018-05-15T06:42:39.125Z,20.13
2018-05-15T06:45:06.578Z,39.47
2018-05-15T06:47:34.032Z,29.13
2018-05-15T06:50:01.477Z,22.10
2018-05-15T06:52:28.929Z,18.37
2018-05-15T06:54:56.374Z,31.93
2018-05-15T06:57:23.831Z,37.70
2018-05-15T06:59:51.329Z,29.47
2018-05-15T07:02:18.818Z,22.57
2018-05-15T07:04:47.061Z,23.30
2018-05-15T07:07:14.524Z,24.37
2018-05-15T07:09:41.978Z,25.53
2018-05-15T07:12:09.421Z,22.00
2018-05-15T07:14:36.872Z,20.97
2018-05-15T07:17:04.328Z,21.97
2018-05-15T07:19:31.828Z,34.57
2018-05-15T07:21:59.224Z,34.13
2018-05-15T07:24:26.685Z,31.47
2018-05-15T07:26:54.129Z,28.63
2018-05-15T07:29:21.582Z,31.20
2018-05-15T07:31:49.027Z,30.93
2018-05-15T07:34:16.516Z,41.53
2018-05-15T07:36:43.961Z,31.33
2018-05-15T07:39:11.409Z,23.87
2018-05-15T07:41:38.849Z,26.23
2018-05-15T07:44:06.316Z,30.67
2018-05-15T07:46:33.809Z,27.80
2018-05-15T07:49:01.257Z,25.37
2018-05-15T07:51:28.697Z,30.07
2018-05-15T07:53:56.190Z,31.10
2018-05-15T07:56:23.638Z,28.47
2018-05-15T07:58:51.105Z,24.97
2018-05-15T08:01:18.546Z,25.80
2018-05-15T08:03:45.993Z,29.37
2018-05-15T08:06:14.213Z,25.90
2018-05-15T08:08:42.463Z,21.83
2018-05-15T08:11:09.933Z,26.60
2018-05-15T08:13:37.376Z,22.83
2018-05-15T08:16:04.828Z,25.70
2018-05-15T08:18:32.373Z,24.93
2018-05-15T08:21:00.706Z,21.53
2018-05-15T08:23:28.265Z,18.70
2018-05-15T08:25:56.616Z,19.30
2018-05-15T08:28:24.715Z,18.43
2018-05-15T08:30:52.289Z,17.17
2018-05-15T08:33:19.703Z,17.03
2018-05-15T08:35:47.189Z,15.73
2018-05-15T08:38:14.713Z,16.20
2018-05-15T08:40:42.329Z,16.10
2018-05-15T08:43:09.886Z,17.13
2018-05-15T08:45:37.485Z,16.67
2018-05-15T08:48:05.090Z,17.00
2018-05-15T08:50:32.707Z,15.60
2018-05-15T08:53:00.228Z,14.30
2018-05-15T08:55:27.771Z,13.90
2018-05-15T08:57:55.321Z,13.00
2018-05-15T09:00:22.873Z,14.00
2018-05-15T09:02:50.509Z,11.70
2018-05-15T09:05:18.951Z,11.90
2018-05-15T09:07:46.544Z,11.90
2018-05-15T09:10:14.178Z,14.67
2018-05-15T09:12:41.741Z,12.43
2018-05-15T09:15:09.369Z,13.30
2018-05-15T09:17:36.877Z,11.97
2018-05-15T09:20:04.432Z,11.90
2018-05-15T09:22:32.784Z,9.87
2018-05-15T09:25:00.444Z,9.10
2018-05-15T09:27:27.908Z,9.03
2018-05-15T09:29:55.516Z,8.10
2018-05-15T09:32:23.733Z,7.97
2018-05-15T09:34:51.281Z,8.33
2018-05-15T09:37:18.784Z,7.90
2018-05-15T09:39:46.545Z,9.10
2018-05-15T09:42:14.169Z,8.20
2018-05-15T09:44:42.153Z,6.20
2018-05-15T09:47:10.786Z,6.80
2018-05-15T09:49:38.668Z,7.13
2018-05-15T09:52:06.268Z,7.70
2018-05-15T09:54:33.829Z,7.70
2018-05-15T09:57:01.295Z,7.93
2018-05-15T09:59:28.974Z,7.23
2018-05-15T10:01:56.494Z,8.27
2018-05-15T10:04:23.970Z,7.60
2018-05-15T10:06:52.317Z,6.93
2018-05-15T10:09:19.845Z,7.80
2018-05-15T10:11:48.086Z,8.17
2018-05-15T10:14:15.635Z,7.13
2018-05-15T10:16:43.042Z,7.30
2018-05-15T10:19:11.258Z,8.13
2018-05-15T10:21:38.752Z,7.60
2018-05-15T10:24:08.128Z,7.53
2018-05-15T10:26:35.570Z,7.30
2018-05-15T10:29:03.011Z,7.27
2018-05-15T10:31:30.571Z,7.67
2018-05-15T10:33:58.027Z,6.57
2018-05-15T10:36:25.472Z,6.20
2018-05-15T10:38:52.953Z,7.83
2018-05-15T10:41:20.441Z,7.00
2018-05-15T10:43:47.955Z,7.00
2018-05-15T10:46:15.333Z,6.83
2018-05-15T10:48:42.766Z,5.70
2018-05-15T10:51:10.808Z,5.07
2018-05-15T10:53:38.305Z,4.67
2018-05-15T10:56:05.754Z,4.37
2018-05-15T10:58:33.181Z,4.63
2018-05-15T11:01:01.389Z,4.50
2018-05-15T11:03:28.884Z,4.43
2018-05-15T11:05:56.359Z,4.43
2018-05-15T11:08:24.561Z,4.37
2018-05-15T11:10:52.070Z,4.20
2018-05-15T11:13:19.520Z,3.50
2018-05-15T11:15:46.976Z,3.27
2018-05-15T11:18:26.093Z,4.07
2018-05-15T11:21:05.381Z,4.30
2018-05-15T11:23:45.297Z,3.63
2018-05-15T11:26:12.741Z,3.23
2018-05-15T11:28:40.197Z,4.37
2018-05-15T11:31:07.707Z,3.33
2018-05-15T11:33:35.945Z,3.83
2018-05-15T11:36:03.606Z,4.17
2018-05-15T11:38:30.833Z,4.03
2018-05-15T11:40:58.268Z,4.20
2018-05-15T11:43:25.705Z,3.30
2018-05-15T11:45:53.905Z,3.00
2018-05-15T11:48:21.928Z,3.43
2018-05-15T11:50:49.491Z,4.70
2018-05-15T11:53:17.512Z,4.60
2018-05-15T11:55:44.475Z,4.77
2018-05-15T11:58:11.969Z,4.60
2018-05-15T12:00:39.345Z,4.87
2018-05-15T12:03:07.552Z,4.67
2018-05-15T12:05:34.989Z,4.30
2018-05-15T12:08:02.512Z,4.43
2018-05-15T12:10:29.944Z,4.30
2018-05-15T12:12:57.407Z,4.73
2018-05-15T12:15:24.805Z,5.37
2018-05-15T12:17:53.017Z,4.80
2018-05-15T12:20:20.455Z,5.07
2018-05-15T12:22:47.898Z,4.97
2018-05-15T12:25:15.337Z,4.57
2018-05-15T12:27:43.541Z,4.63
2018-05-15T12:30:10.984Z,4.77
2018-05-15T12:32:38.432Z,4.50
2018-05-15T12:35:06.635Z,4.33
2018-05-15T12:37:34.081Z,5.00
2018-05-15T12:40:01.506Z,5.07
2018-05-15T12:42:29.713Z,5.10
2018-05-15T12:44:57.149Z,4.23
2018-05-15T12:47:25.353Z,5.13
2018-05-15T12:49:52.789Z,4.70
2018-05-15T12:52:20.230Z,5.30
2018-05-15T12:54:48.433Z,4.30
2018-05-15T12:57:15.880Z,4.20
2018-05-15T12:59:43.309Z,5.20
2018-05-15T13:02:10.753Z,5.27
2018-05-15T13:04:38.213Z,4.70
2018-05-15T13:07:05.660Z,5.10
2018-05-15T13:09:33.108Z,5.23
2018-05-15T13:12:00.536Z,4.80
2018-05-15T13:14:27.983Z,5.03
2018-05-15T13:16:56.246Z,6.07
2018-05-15T13:19:24.464Z,5.70
2018-05-15T13:21:51.932Z,4.73
2018-05-15T13:24:19.408Z,4.50
2018-05-15T13:26:46.828Z,4.60
2018-05-15T13:29:14.376Z,5.30
2018-05-15T13:31:41.893Z,5.30
2018-05-15T13:34:10.107Z,6.00
2018-05-15T13:36:37.742Z,4.77
2018-05-15T13:39:06.149Z,5.53
2018-05-15T13:41:33.582Z,4.40
2018-05-15T13:44:01.788Z,4.50
2018-05-15T13:46:29.250Z,4.23
2018-05-15T13:48:56.701Z,3.40
2018-05-15T13:51:24.141Z,4.10
2018-05-15T13:53:51.593Z,4.40
2018-05-15T13:56:19.031Z,4.80
2018-05-15T13:58:46.479Z,3.87
2018-05-15T14:01:13.930Z,4.17
2018-05-15T14:03:41.386Z,3.97
2018-05-15T14:06:08.822Z,4.53
2018-05-15T14:08:36.259Z,4.53
2018-05-15T14:11:03.701Z,3.97
2018-05-15T14:13:31.152Z,3.60
2018-05-15T14:15:58.608Z,4.70
2018-05-15T14:18:26.057Z,4.23
2018-05-15T14:20:54.265Z,4.40
2018-05-15T14:23:21.733Z,4.77
2018-05-15T14:25:49.991Z,3.77
2018-05-15T14:28:17.429Z,3.50
2018-05-15T14:30:44.974Z,3.77
2018-05-15T14:33:12.447Z,3.30
2018-05-15T14:35:39.884Z,3.13
2018-05-15T14:38:08.100Z,3.20
2018-05-15T14:40:35.600Z,2.60
2018-05-15T14:43:29.685Z,2.93
2018-05-15T14:45:57.129Z,3.30
2018-05-15T14:48:24.561Z,2.97
2018-05-15T14:53:57.255Z,3.27
2018-05-15T14:56:24.701Z,3.30
2018-05-15T14:58:53.001Z,3.20
2018-05-15T15:01:20.433Z,3.37
2018-05-15T15:03:47.892Z,3.33
2018-05-15T15:06:16.099Z,3.10
2018-05-15T15:08:43.626Z,3.67
2018-05-15T15:11:11.085Z,4.03
2018-05-15T15:13:38.521Z,3.93
2018-05-15T15:16:05.968Z,3.57
2018-05-15T15:18:34.173Z,3.10
2018-05-15T15:21:01.617Z,3.20
2018-05-15T15:23:29.049Z,3.50
2018-05-15T15:25:57.257Z,3.53
2018-05-15T15:28:24.712Z,3.80
2018-05-15T15:30:52.153Z,3.53
2018-05-15T15:33:19.593Z,3.53
2018-05-15T15:35:47.801Z,3.27
2018-05-15T15:38:16.001Z,3.40
2018-05-15T15:40:43.445Z,4.40
2018-05-15T15:43:10.897Z,4.10
2018-05-15T15:45:38.344Z,4.10
2018-05-15T15:48:05.808Z,4.60
2018-05-15T15:50:33.237Z,3.90
2018-05-15T15:53:01.440Z,4.63
2018-05-15T15:55:28.935Z,4.83
2018-05-15T15:57:57.157Z,5.10
2018-05-15T16:00:24.632Z,5.17
2018-05-15T16:02:52.841Z,4.73
2018-05-15T16:05:20.285Z,4.97
2018-05-15T16:07:48.492Z,4.87
2018-05-15T16:10:16.702Z,5.33
2018-05-15T16:12:44.130Z,5.00
2018-05-15T16:15:12.346Z,5.37
2018-05-15T16:20:11.369Z,5.03
2018-05-15T16:22:38.804Z,5.07
2018-05-15T16:25:06.234Z,4.53
2018-05-15T16:27:34.493Z,4.63
2018-05-15T16:30:01.961Z,5.27
2018-05-15T16:32:30.166Z,4.50
2018-05-15T16:34:57.606Z,4.40
2018-05-15T16:37:25.834Z,4.20
2018-05-15T16:39:53.297Z,4.50
2018-05-15T16:42:22.277Z,4.40
2018-05-15T16:44:49.808Z,4.67
2018-05-15T16:47:17.272Z,4.50
2018-05-15T16:49:45.499Z,4.40
2018-05-15T16:52:14.689Z,3.50
2018-05-15T16:54:42.953Z,3.43
2018-05-15T16:57:11.363Z,3.90
2018-05-15T16:59:38.838Z,4.07
2018-05-15T17:02:06.308Z,3.87
2018-05-15T17:04:33.744Z,3.90
2018-05-15T17:07:02.718Z,4.00
2018-05-15T17:09:30.327Z,3.13
2018-05-15T17:11:57.934Z,3.50
2018-05-15T17:14:25.406Z,2.77
2018-05-15T17:16:53.900Z,3.40
2018-05-15T17:19:21.427Z,2.57
2018-05-15T17:21:48.868Z,2.90
2018-05-15T17:24:16.300Z,3.00
2018-05-15T17:26:43.753Z,2.33
2018-05-15T17:29:11.189Z,2.70
2018-05-15T17:31:38.633Z,1.80
2018-05-15T17:34:06.838Z,2.00
2018-05-15T17:36:34.281Z,2.30
2018-05-15T17:39:01.715Z,2.50
2018-05-15T17:41:29.919Z,2.60
2018-05-15T17:43:57.353Z,2.37
2018-05-15T17:46:25.569Z,2.37
2018-05-15T17:48:54.349Z,2.70
2018-05-15T17:51:21.827Z,2.60
2018-05-15T17:53:49.280Z,2.63
2018-05-15T17:56:16.734Z,2.33
2018-05-15T17:58:44.177Z,2.60
2018-05-15T18:01:11.621Z,2.57
2018-05-15T18:03:39.052Z,2.30
2018-05-15T18:06:07.266Z,2.87
2018-05-15T18:08:34.794Z,2.70
2018-05-15T18:11:02.173Z,2.87
2018-05-15T18:13:29.607Z,2.80
2018-05-15T18:15:57.048Z,2.53
2018-05-15T18:18:25.262Z,2.10
2018-05-15T18:20:52.700Z,2.30
2018-05-15T18:23:20.141Z,1.90
2018-05-15T18:25:48.688Z,1.63
2018-05-15T18:28:16.536Z,2.20
2018-05-15T18:30:44.373Z,2.40
2018-05-15T18:33:12.254Z,2.40
2018-05-15T18:35:40.418Z,2.40
2018-05-15T18:38:07.867Z,3.13
2018-05-15T18:40:35.292Z,2.30
2018-05-15T18:43:03.505Z,1.80
2018-05-15T18:45:30.950Z,1.77
2018-05-15T18:47:59.161Z,2.00
2018-05-15T18:50:26.605Z,2.00
2018-05-15T18:52:54.121Z,1.70
2018-05-15T18:55:22.324Z,1.80
2018-05-15T18:57:49.829Z,1.70
2018-05-15T19:00:17.256Z,1.80
2018-05-15T19:02:44.695Z,1.90
2018-05-15T19:05:12.135Z,1.40
2018-05-15T19:07:39.599Z,2.20
2018-05-15T19:10:07.149Z,1.80
2018-05-15T19:12:34.589Z,2.37
2018-05-15T19:15:02.820Z,1.70
2018-05-15T19:17:30.381Z,1.40
2018-05-15T19:19:57.818Z,1.43
2018-05-15T19:22:25.280Z,1.30
2018-05-15T19:24:52.713Z,1.43
2018-05-15T19:27:20.198Z,1.40
2018-05-15T19:29:47.627Z,1.20
2018-05-15T19:32:16.873Z,1.20
2018-05-15T19:34:49.944Z,1.13
2018-05-15T19:37:17.387Z,1.30
2018-05-15T19:39:44.917Z,1.17
2018-05-15T19:42:12.286Z,1.40
2018-05-15T19:44:39.713Z,1.30
2018-05-15T19:47:07.917Z,1.60
2018-05-15T19:49:35.376Z,1.40
2018-05-15T19:52:02.814Z,1.57
2018-05-15T19:54:31.048Z,1.50
2018-05-15T19:56:58.479Z,1.63
2018-05-15T19:59:25.931Z,1.50
2018-05-15T20:01:53.380Z,1.30
2018-05-15T20:04:21.577Z,1.30
2018-05-15T20:06:49.045Z,1.20
2018-05-15T20:09:17.256Z,1.47
2018-05-15T20:11:45.449Z,1.43
2018-05-15T20:14:13.005Z,1.40
2018-05-15T20:16:41.227Z,1.23
2018-05-15T20:19:09.441Z,1.47
2018-05-15T20:21:37.649Z,1.30
2018-05-15T20:24:05.977Z,1.23
2018-05-15T20:26:33.633Z,1.30
2018-05-15T20:29:02.883Z,1.27
2018-05-15T20:31:31.053Z,1.27
2018-05-15T20:33:59.272Z,1.30
2018-05-15T20:36:26.880Z,1.10
2018-05-15T20:38:55.080Z,1.07
2018-05-15T20:41:22.528Z,1.10
2018-05-15T20:43:49.969Z,1.27
2018-05-15T20:46:17.396Z,1.20
2018-05-15T20:48:45.622Z,1.30
2018-05-15T20:51:13.090Z,1.40
2018-05-15T20:53:40.545Z,1.63
2018-05-15T20:56:07.999Z,1.70
2018-05-15T20:58:35.665Z,1.57
2018-05-15T21:01:03.100Z,1.73
2018-05-15T21:03:30.542Z,1.63
2018-05-15T21:05:57.978Z,1.60
2018-05-15T21:08:26.311Z,1.90
2018-05-15T21:10:53.884Z,2.00
2018-05-15T21:13:22.145Z,1.60
2018-05-15T21:15:49.577Z,2.00
2018-05-15T21:18:17.217Z,2.20
2018-05-15T21:20:44.669Z,2.20
2018-05-15T21:23:12.860Z,1.80
2018-05-15T21:25:40.309Z,2.00
2018-05-15T21:28:07.757Z,1.73
2018-05-15T21:30:35.206Z,1.90
2018-05-15T21:33:03.584Z,1.90
2018-05-15T21:35:31.910Z,2.00
2018-05-15T21:37:59.511Z,2.13
2018-05-15T21:40:27.728Z,2.30
2018-05-15T21:42:55.999Z,2.50
2018-05-15T21:45:23.466Z,2.20
2018-05-15T21:47:51.006Z,2.30
2018-05-15T21:50:19.205Z,2.53
2018-05-15T21:52:46.669Z,3.10
2018-05-15T21:55:14.144Z,2.90
2018-05-15T21:57:41.577Z,3.60
2018-05-15T22:00:09.016Z,2.83
2018-05-15T22:02:36.465Z,2.60
2018-05-15T22:05:03.909Z,3.10
2018-05-15T22:07:31.359Z,2.60
2018-05-15T22:09:59.566Z,2.60
2018-05-15T22:12:38.885Z,2.50
2018-05-15T22:15:18.237Z,2.73
2018-05-15T22:17:59.208Z,2.60
2018-05-15T22:20:38.437Z,3.03
2018-05-15T22:23:05.310Z,2.70
2018-05-15T22:25:32.748Z,2.43
2018-05-15T22:28:00.185Z,2.30
2018-05-15T22:30:27.626Z,2.50
2018-05-15T22:32:55.062Z,2.43
2018-05-15T22:35:23.269Z,2.20
2018-05-15T22:37:50.717Z,2.10
2018-05-15T22:40:18.177Z,2.30
2018-05-15T22:42:45.607Z,2.60
2018-05-15T22:45:13.061Z,2.47
2018-05-15T22:47:41.260Z,2.17
2018-05-15T22:50:09.499Z,2.33
2018-05-15T22:52:36.947Z,3.67
2018-05-15T22:55:04.410Z,3.30
2018-05-15T22:57:31.864Z,2.87
2018-05-15T22:59:59.317Z,2.97
2018-05-15T23:02:26.758Z,2.30
2018-05-15T23:04:54.192Z,2.60
2018-05-15T23:07:21.633Z,3.03
2018-05-15T23:09:49.068Z,3.30
2018-05-15T23:12:16.504Z,2.80
2018-05-15T23:14:44.722Z,2.73
2018-05-15T23:17:12.164Z,2.73
2018-05-15T23:19:39.589Z,2.63
2018-05-15T23:22:07.795Z,2.67
2018-05-15T23:24:35.232Z,3.43
2018-05-15T23:27:03.441Z,2.90
2018-05-15T23:29:30.903Z,2.87
2018-05-15T23:31:58.322Z,3.03
2018-05-15T23:34:26.517Z,2.60
2018-05-15T23:36:54.002Z,2.93
2018-05-15T23:39:21.435Z,3.37
2018-05-15T23:41:48.873Z,3.70
2018-05-15T23:44:16.328Z,3.63
2018-05-15T23:46:43.786Z,3.20
2018-05-15T23:49:11.223Z,2.70
2018-05-15T23:51:39.429Z,2.80
2018-05-15T23:54:06.860Z,2.80
2018-05-15T23:56:35.073Z,2.73
2018-05-15T23:59:02.514Z,2.90
